Terminal Aerodrome Forecast
Issued by NWS Duluth, MN

Home | Current Version | Previous Version | Text Only | Print | Product List | Glossary On
Versions: 1 2 3 4 5 6 7 8 9 10 11 12 13 14 15 16 17
086
FTUS43 KDLH 311730
TAFINL
TAF
KINL 311730Z 3118/0118 31005KT P6SM SCT030 BKN050
      TEMPO 3118/3122 BKN030
     FM312300 05006KT P6SM SCT040
      TEMPO 0110/0113 3SM BR
     FM011400 12008KT P6SM SKC=

USA.gov is the U.S. government's official web portal to all federal, state and local government web resources and services.